Terminal Aerodrome Forecast
Issued by NWS Brownsville, TX

Home | Current Version | Previous Version | Text Only | Print | Product List | Glossary On
Versions: 1 2 3 4 5 6 7 8 9 10 11 12 13 14
000
FTUS44 KBRO 241700
TAFHRL
TAF
KHRL 241720Z 2418/2518 VRB05KT P6SM SCT040
     FM241900 13008KT P6SM SCT050
     FM242200 11015KT P6SM FEW050
     FM250200 13006KT P6SM SCT150 BKN250
     FM250500 15004KT P6SM SKC
     FM251500 18010KT P6SM FEW030=

USA.gov is the U.S. government's official web portal to all federal, state and local government web resources and services.